Time,TemperatureF,DewpointF,PressureIn,WindDirection,WindDirectionDegrees,WindSpeedMPH,WindSpeedGustMPH,Humidity,HourlyPrecipIn,Conditions,Clouds,dailyrainin,SolarRadiationWatts/m^2,SoftwareType,DateUTC
2013-01-28 00:00:00,26.0,25.0,-100.00,ESE,116,3.0,6.0,94,0.00,,,0.04,0.000000,,2013-01-28 06:00:00,
2013-01-28 00:22:00,26.0,25.0,-100.00,ESE,116,3.0,6.0,94,0.00,,,0.04,0.000000,,2013-01-28 06:22:00,
2013-01-28 00:32:00,26.0,25.0,-100.00,ESE,116,3.0,6.0,94,0.00,,,0.04,0.000000,,2013-01-28 06:32:00,
2013-01-28 00:42:00,26.0,25.0,-100.00,ESE,116,3.0,6.0,94,0.00,,,0.04,0.000000,,2013-01-28 06:42:00,
2013-01-28 00:52:00,26.0,25.0,-100.00,ESE,116,3.0,6.0,94,0.00,,,0.04,0.000000,,2013-01-28 06:52:00,
2013-01-28 01:00:00,26.0,25.0,-100.00,ESE,106,0.0,4.0,94,0.00,,,0.04,0.000000,,2013-01-28 07:00:00,
2013-01-28 01:22:00,26.0,25.0,-100.00,ESE,106,0.0,4.0,94,0.00,,,0.04,0.000000,,2013-01-28 07:22:00,
2013-01-28 01:32:00,26.0,25.0,-100.00,ESE,106,0.0,4.0,94,0.00,,,0.04,0.000000,,2013-01-28 07:32:00,
2013-01-28 01:42:00,26.0,25.0,-100.00,ESE,106,0.0,4.0,94,0.00,,,0.04,0.000000,,2013-01-28 07:42:00,
2013-01-28 01:52:00,26.0,25.0,-100.00,ESE,106,0.0,4.0,94,0.00,,,0.04,0.000000,,2013-01-28 07:52:00,
2013-01-28 02:00:00,26.0,25.0,-100.00,East,93,0.0,3.0,94,0.00,,,0.04,0.000000,,2013-01-28 08:00:00,
2013-01-28 02:32:00,26.0,25.0,-100.00,East,93,0.0,3.0,94,0.00,,,0.04,0.000000,,2013-01-28 08:32:00,
2013-01-28 02:42:00,26.0,25.0,-100.00,East,93,0.0,3.0,94,0.00,,,0.04,0.000000,,2013-01-28 08:42:00,
2013-01-28 02:52:00,26.0,25.0,-100.00,East,93,0.0,3.0,94,0.00,,,0.04,0.000000,,2013-01-28 08:52:00,
2013-01-28 03:00:00,26.0,25.0,-100.00,NNE,21,0.0,0.0,94,0.00,,,0.04,0.000000,,2013-01-28 09:00:00,
2013-01-28 03:32:00,26.0,25.0,-100.00,NNE,21,0.0,0.0,94,0.00,,,0.04,0.000000,,2013-01-28 09:32:00,
2013-01-28 03:42:00,26.0,25.0,-100.00,NNE,21,0.0,0.0,94,0.00,,,0.04,0.000000,,2013-01-28 09:42:00,
2013-01-28 03:52:00,26.0,25.0,-100.00,NNE,21,0.0,0.0,94,0.00,,,0.04,0.000000,,2013-01-28 09:52:00,
2013-01-28 05:00:00,23.0,21.0,-100.00,NE,38,0.0,0.0,92,-99.99,,,0.04,0.000000,,2013-01-28 11:00:00,
2013-01-28 05:32:00,23.0,21.0,-100.00,NE,38,0.0,0.0,92,-99.99,,,0.04,0.000000,,2013-01-28 11:32:00,
2013-01-28 05:42:00,23.0,21.0,-100.00,NE,38,0.0,0.0,92,-99.99,,,0.04,0.000000,,2013-01-28 11:42:00,
2013-01-28 05:52:00,23.0,21.0,-100.00,NE,38,0.0,0.0,92,-99.99,,,0.04,0.000000,,2013-01-28 11:52:00,
2013-01-28 06:00:00,20.0,18.0,-100.00,SSE,148,0.0,2.0,91,0.00,,,0.04,0.000000,,2013-01-28 12:00:00,
2013-01-28 06:23:00,20.0,18.0,-100.00,SSE,148,0.0,2.0,91,0.00,,,0.04,0.000000,,2013-01-28 12:23:00,
2013-01-28 06:33:00,20.0,18.0,-100.00,SSE,148,0.0,2.0,91,0.00,,,0.04,0.000000,,2013-01-28 12:33:00,
2013-01-28 06:42:00,20.0,18.0,-100.00,SSE,148,0.0,2.0,91,0.00,,,0.04,0.000000,,2013-01-28 12:42:00,
2013-01-28 06:52:00,20.0,18.0,-100.00,SSE,148,0.0,2.0,91,0.00,,,0.04,0.000000,,2013-01-28 12:52:00,
2013-01-28 07:00:00,22.0,20.0,-100.00,NW,321,0.0,0.0,92,0.00,,,0.04,0.000000,,2013-01-28 13:00:00,
2013-01-28 07:23:00,22.0,20.0,-100.00,NW,321,0.0,0.0,92,0.00,,,0.04,0.000000,,2013-01-28 13:23:00,
2013-01-28 07:33:00,22.0,20.0,-100.00,NW,321,0.0,0.0,92,0.00,,,0.04,0.000000,,2013-01-28 13:33:00,
2013-01-28 07:42:00,22.0,20.0,-100.00,NW,321,0.0,0.0,92,0.00,,,0.04,0.000000,,2013-01-28 13:42:00,
2013-01-28 07:53:00,22.0,20.0,-100.00,NW,321,0.0,0.0,92,0.00,,,0.04,0.000000,,2013-01-28 13:53:00,
2013-01-28 08:00:00,24.0,23.0,-100.00,WNW,303,0.0,3.0,94,0.00,,,0.04,1.000000,,2013-01-28 14:00:00,
2013-01-28 08:33:00,24.0,23.0,-100.00,WNW,303,0.0,3.0,94,0.00,,,0.04,1.000000,,2013-01-28 14:33:00,
2013-01-28 08:43:00,24.0,23.0,-100.00,WNW,303,0.0,3.0,94,0.00,,,0.04,1.000000,,2013-01-28 14:43:00,
2013-01-28 08:53:00,24.0,23.0,-100.00,WNW,303,0.0,3.0,94,0.00,,,0.04,1.000000,,2013-01-28 14:53:00,
2013-01-28 09:00:00,26.0,24.0,-100.00,West,280,0.0,0.0,92,0.00,,,0.04,10.000000,,2013-01-28 15:00:00,
2013-01-28 09:33:00,26.0,24.0,-100.00,West,280,0.0,0.0,92,0.00,,,0.04,10.000000,,2013-01-28 15:33:00,
2013-01-28 09:43:00,26.0,24.0,-100.00,West,280,0.0,0.0,92,0.00,,,0.04,10.000000,,2013-01-28 15:43:00,
2013-01-28 09:53:00,26.0,24.0,-100.00,West,280,0.0,0.0,92,0.00,,,0.04,10.000000,,2013-01-28 15:53:00,
2013-01-28 10:00:00,30.0,27.0,-100.00,South,171,0.0,2.0,88,0.00,,,0.04,27.000000,,2013-01-28 16:00:00,
2013-01-28 10:33:00,30.0,27.0,-100.00,South,171,0.0,2.0,88,0.00,,,0.04,27.000000,,2013-01-28 16:33:00,
2013-01-28 10:43:00,30.0,27.0,-100.00,South,171,0.0,2.0,88,0.00,,,0.04,27.000000,,2013-01-28 16:43:00,
2013-01-28 10:53:00,30.0,27.0,-100.00,South,171,0.0,2.0,88,0.00,,,0.04,27.000000,,2013-01-28 16:53:00,
2013-01-28 11:00:00,32.0,27.0,-100.00,SE,143,2.0,2.0,82,0.01,,,0.05,41.000000,,2013-01-28 17:00:00,
2013-01-28 11:33:00,32.0,27.0,-100.00,SE,143,2.0,2.0,82,0.01,,,0.05,41.000000,,2013-01-28 17:33:00,
2013-01-28 11:42:00,32.0,27.0,-100.00,SE,143,2.0,2.0,82,0.01,,,0.05,41.000000,,2013-01-28 17:42:00,
2013-01-28 11:53:00,32.0,27.0,-100.00,SE,143,2.0,2.0,82,0.01,,,0.05,41.000000,,2013-01-28 17:53:00,
2013-01-28 12:00:00,32.0,27.0,-100.00,South,181,2.0,7.0,80,0.00,,,0.05,52.000000,,2013-01-28 18:00:00,
2013-01-28 12:23:00,32.0,27.0,-100.00,South,181,2.0,7.0,80,0.00,,,0.05,52.000000,,2013-01-28 18:23:00,
2013-01-28 12:33:00,32.0,27.0,-100.00,South,181,2.0,7.0,80,0.00,,,0.05,52.000000,,2013-01-28 18:33:00,
2013-01-28 12:42:00,32.0,27.0,-100.00,South,181,2.0,7.0,80,0.00,,,0.05,52.000000,,2013-01-28 18:42:00,
2013-01-28 12:52:00,32.0,27.0,-100.00,South,181,2.0,7.0,80,0.00,,,0.05,52.000000,,2013-01-28 18:52:00,
2013-01-28 13:00:00,36.0,28.0,-100.00,ESE,123,2.0,4.0,72,0.08,,,0.11,100.000000,,2013-01-28 19:00:00,
2013-01-28 13:33:00,36.0,28.0,-100.00,ESE,123,2.0,4.0,72,0.08,,,0.11,100.000000,,2013-01-28 19:33:00,
2013-01-28 13:42:00,36.0,28.0,-100.00,ESE,123,2.0,4.0,72,0.08,,,0.11,100.000000,,2013-01-28 19:42:00,
2013-01-28 13:52:00,36.0,28.0,-100.00,ESE,123,2.0,4.0,72,0.08,,,0.11,100.000000,,2013-01-28 19:52:00,
2013-01-28 14:00:00,36.0,29.0,-100.00,South,184,3.0,7.0,74,0.10,,,0.19,194.000000,,2013-01-28 20:00:00,
2013-01-28 14:33:00,36.0,29.0,-100.00,South,184,3.0,7.0,74,0.10,,,0.19,194.000000,,2013-01-28 20:33:00,
2013-01-28 14:43:00,36.0,29.0,-100.00,South,184,3.0,7.0,74,0.10,,,0.19,194.000000,,2013-01-28 20:43:00,
2013-01-28 14:53:00,36.0,29.0,-100.00,South,184,3.0,7.0,74,0.10,,,0.19,194.000000,,2013-01-28 20:53:00,
2013-01-28 15:00:00,39.0,30.0,-100.00,South,171,2.0,6.0,69,0.10,,,0.29,239.000000,,2013-01-28 21:00:00,
2013-01-28 15:33:00,39.0,30.0,-100.00,South,171,2.0,6.0,69,0.10,,,0.29,239.000000,,2013-01-28 21:33:00,
2013-01-28 15:43:00,39.0,30.0,-100.00,South,171,2.0,6.0,69,0.10,,,0.29,239.000000,,2013-01-28 21:43:00,
2013-01-28 15:53:00,39.0,30.0,-100.00,South,171,2.0,6.0,69,0.10,,,0.29,239.000000,,2013-01-28 21:53:00,
2013-01-28 16:00:00,36.0,29.0,-100.00,SSE,162,1.0,6.0,75,0.08,,,0.37,269.000000,,2013-01-28 22:00:00,
2013-01-28 16:23:00,36.0,29.0,-100.00,SSE,162,1.0,6.0,75,0.08,,,0.37,269.000000,,2013-01-28 22:23:00,
2013-01-28 16:33:00,36.0,29.0,-100.00,SSE,162,1.0,6.0,75,0.08,,,0.37,269.000000,,2013-01-28 22:33:00,
2013-01-28 16:42:00,36.0,29.0,-100.00,SSE,162,1.0,6.0,75,0.08,,,0.37,269.000000,,2013-01-28 22:42:00,
2013-01-28 16:52:00,36.0,29.0,-100.00,SSE,162,1.0,6.0,75,0.08,,,0.37,269.000000,,2013-01-28 22:52:00,
2013-01-28 17:00:00,29.0,27.0,-100.00,ESE,116,0.0,5.0,92,0.01,,,0.38,23.000000,,2013-01-28 23:00:00,
2013-01-28 17:33:00,29.0,27.0,-100.00,ESE,116,0.0,5.0,92,0.01,,,0.38,23.000000,,2013-01-28 23:33:00,
2013-01-28 17:42:00,29.0,27.0,-100.00,ESE,116,0.0,5.0,92,0.01,,,0.38,23.000000,,2013-01-28 23:42:00,
2013-01-28 17:53:00,29.0,27.0,-100.00,ESE,116,0.0,5.0,92,0.01,,,0.38,23.000000,,2013-01-28 23:53:00,
2013-01-28 18:00:00,27.0,25.0,-100.00,East,92,0.0,3.0,93,0.00,,,0.38,1.000000,,2013-01-29 00:00:00,
2013-01-28 18:33:00,27.0,25.0,-100.00,East,92,0.0,3.0,93,0.00,,,0.38,1.000000,,2013-01-29 00:33:00,
2013-01-28 18:42:00,27.0,25.0,-100.00,East,92,0.0,3.0,93,0.00,,,0.38,1.000000,,2013-01-29 00:42:00,
2013-01-28 18:52:00,27.0,25.0,-100.00,East,92,0.0,3.0,93,0.00,,,0.38,1.000000,,2013-01-29 00:52:00,
2013-01-28 19:00:00,28.0,27.0,-100.00,ESE,120,0.0,4.0,95,0.00,,,0.38,0.000000,,2013-01-29 01:00:00,
2013-01-28 19:32:00,28.0,27.0,-100.00,ESE,120,0.0,4.0,95,0.00,,,0.38,0.000000,,2013-01-29 01:32:00,
2013-01-28 19:42:00,28.0,27.0,-100.00,ESE,120,0.0,4.0,95,0.00,,,0.38,0.000000,,2013-01-29 01:42:00,
2013-01-28 19:52:00,28.0,27.0,-100.00,ESE,120,0.0,4.0,95,0.00,,,0.38,0.000000,,2013-01-29 01:52:00,
2013-01-28 20:00:00,29.0,27.0,-100.00,SSE,147,1.0,6.0,91,0.00,,,0.38,0.000000,,2013-01-29 02:00:00,
2013-01-28 20:33:00,29.0,27.0,-100.00,SSE,147,1.0,6.0,91,0.00,,,0.38,0.000000,,2013-01-29 02:33:00,
2013-01-28 20:42:00,29.0,27.0,-100.00,SSE,147,1.0,6.0,91,0.00,,,0.38,0.000000,,2013-01-29 02:42:00,
2013-01-28 20:53:00,29.0,27.0,-100.00,SSE,147,1.0,6.0,91,0.00,,,0.38,0.000000,,2013-01-29 02:53:00,
2013-01-28 21:00:00,29.0,27.0,-100.00,SSE,164,2.0,7.0,93,0.00,,,0.38,0.000000,,2013-01-29 03:00:00,
2013-01-28 21:22:00,29.0,27.0,-100.00,SSE,164,2.0,7.0,93,0.00,,,0.38,0.000000,,2013-01-29 03:22:00,
2013-01-28 21:32:00,29.0,27.0,-100.00,SSE,164,2.0,7.0,93,0.00,,,0.38,0.000000,,2013-01-29 03:32:00,
2013-01-28 21:42:00,29.0,27.0,-100.00,SSE,164,2.0,7.0,93,0.00,,,0.38,0.000000,,2013-01-29 03:42:00,
2013-01-28 21:53:00,29.0,27.0,-100.00,SSE,164,2.0,7.0,93,0.00,,,0.38,0.000000,,2013-01-29 03:53:00,
2013-01-28 22:00:00,29.0,27.0,-100.00,SSE,155,1.0,7.0,93,0.00,,,0.38,0.000000,,2013-01-29 04:00:00,
2013-01-28 22:32:00,29.0,27.0,-100.00,SSE,155,1.0,7.0,93,0.00,,,0.38,0.000000,,2013-01-29 04:32:00,
2013-01-28 22:42:00,29.0,27.0,-100.00,SSE,155,1.0,7.0,93,0.00,,,0.38,0.000000,,2013-01-29 04:42:00,
2013-01-28 22:52:00,29.0,27.0,-100.00,SSE,155,1.0,7.0,93,0.00,,,0.38,0.000000,,2013-01-29 04:52:00,
2013-01-28 23:00:00,28.0,26.0,-100.00,SSE,159,4.0,8.0,93,0.00,,,0.38,0.000000,,2013-01-29 05:00:00,
2013-01-28 23:32:00,28.0,26.0,-100.00,SSE,159,4.0,8.0,93,0.00,,,0.38,0.000000,,2013-01-29 05:32:00,
2013-01-28 23:43:00,28.0,26.0,-100.00,SSE,159,4.0,8.0,93,0.00,,,0.38,0.000000,,2013-01-29 05:43:00,
2013-01-28 23:52:00,28.0,26.0,-100.00,SSE,159,4.0,8.0,93,0.00,,,0.38,0.000000,,2013-01-29 05:52:00,